Time;durP1;ratioP1;P1;durP2;ratioP2;P2;SDS_P1;SDS_P2;PMS_P1;PMS_P2;Temp;Humidity;BMP_temperature;BMP_pressure;BME280_temperature;BME280_humidity;BME280_pressure;Samples;Min_cycle;Max_cycle;Signal;HPM_P1;HPM_P2
2022/08/02 00:01:35;;;;;;;;;;;20.00;99.90;;;;;;5075858;28;19978;-80
2022/08/02 00:04:00;;;;;;;;;;;20.10;99.90;;;;;;5075750;28;19912;-83
2022/08/02 00:06:26;;;;;;;;;;;20.00;99.90;;;;;;5057462;28;19908;-82
2022/08/02 00:08:52;;;;;;;;;;;20.10;99.90;;;;;;5075757;28;20288;-80
2022/08/02 00:11:18;;;;;;;;;;;20.00;99.90;;;;;;5075639;28;19908;-77
2022/08/02 00:13:44;;;;;;;;;;;20.10;99.90;;;;;;5075589;28;20476;-81
2022/08/02 00:16:09;;;;;;;;;;;20.00;99.90;;;;;;5075301;28;20025;-81
2022/08/02 00:18:35;;;;;;;;;;;20.10;99.90;;;;;;5075073;28;19908;-79
2022/08/02 00:21:00;;;;;;;;;;;20.20;99.90;;;;;;5075403;28;19970;-78
2022/08/02 00:23:26;;;;;;;;;;;20.20;99.90;;;;;;5057353;28;19908;-82
2022/08/02 00:25:52;;;;;;;;;;;20.00;99.90;;;;;;5075395;28;19909;-81
2022/08/02 00:28:17;;;;;;;;;;;19.90;99.90;;;;;;5075367;28;19909;-81
2022/08/02 00:30:43;;;;;;;;;;;19.90;99.90;;;;;;5075326;28;20395;-82
2022/08/02 00:33:08;;;;;;;;;;;19.90;99.90;;;;;;5075183;28;19995;-81
2022/08/02 00:35:34;;;;;;;;;;;20.00;99.90;;;;;;5075159;28;19915;-83
2022/08/02 00:38:01;;;;;;;;;;;20.10;99.90;;;;;;5057719;28;19909;-80
2022/08/02 00:40:26;;;;;;;;;;;20.10;99.90;;;;;;5075333;28;19908;-80
2022/08/02 00:43:03;;;;;;;;;;;20.00;99.90;;;;;;5074913;28;20054;-83
2022/08/02 00:45:29;;;;;;;;;;;19.90;99.90;;;;;;5056975;28;19936;-77
2022/08/02 00:47:55;;;;;;;;;;;19.80;99.90;;;;;;5074800;28;19908;-80
2022/08/02 00:50:20;;;;;;;;;;;19.60;99.90;;;;;;5075129;28;20387;-82
2022/08/02 00:52:46;;;;;;;;;;;19.60;99.90;;;;;;5056824;28;19916;-81
2022/08/02 00:55:11;;;;;;;;;;;19.60;99.90;;;;;;5056789;28;20003;-79
2022/08/02 00:57:37;;;;;;;;;;;19.70;99.90;;;;;;5074315;28;19931;-84
2022/08/02 01:00:03;;;;;;;;;;;19.80;99.90;;;;;;5056719;28;20003;-81
2022/08/02 01:02:29;;;;;;;;;;;19.80;99.90;;;;;;5073918;28;20369;-83
2022/08/02 01:04:54;;;;;;;;;;;19.80;99.90;;;;;;5074641;28;19918;-76
2022/08/02 01:07:20;;;;;;;;;;;19.80;99.90;;;;;;5074589;28;19908;-83
2022/08/02 01:09:46;;;;;;;;;;;19.70;99.90;;;;;;5074462;28;20331;-80
2022/08/02 01:12:12;;;;;;;;;;;19.70;99.90;;;;;;5074399;28;19917;-82
2022/08/02 01:14:39;;;;;;;;;;;19.70;99.90;;;;;;5074350;28;19909;-80
2022/08/02 01:17:07;;;;;;;;;;;19.70;99.90;;;;;;5056348;28;20296;-82
2022/08/02 01:19:33;;;;;;;;;;;19.60;99.90;;;;;;5074269;28;19931;-80
2022/08/02 01:22:34;;;;;;;;;;;19.60;99.90;;;;;;5056229;28;20353;-84
2022/08/02 01:25:02;;;;;;;;;;;19.50;99.90;;;;;;5012614;28;20377;-79
2022/08/02 01:27:31;;;;;;;;;;;19.40;99.90;;;;;;5062115;28;19908;-81
2022/08/02 01:29:58;;;;;;;;;;;19.20;99.90;;;;;;5056166;28;19916;-83
2022/08/02 01:32:28;;;;;;;;;;;18.90;99.90;;;;;;5074245;28;19908;-83
2022/08/02 01:34:54;;;;;;;;;;;19.10;99.90;;;;;;5073996;28;19912;-81
2022/08/02 01:37:41;;;;;;;;;;;19.10;99.90;;;;;;5073970;28;20007;-80
2022/08/02 01:40:09;;;;;;;;;;;19.30;99.90;;;;;;5074076;28;19999;-82
2022/08/02 01:42:35;;;;;;;;;;;19.30;99.90;;;;;;5074097;28;19909;-78
2022/08/02 01:45:02;;;;;;;;;;;19.30;99.90;;;;;;5073377;28;19990;-78
2022/08/02 01:47:32;;;;;;;;;;;19.30;99.90;;;;;;5073248;28;20128;-79
2022/08/02 01:49:58;;;;;;;;;;;19.20;99.90;;;;;;5055836;28;20285;-79
2022/08/02 01:52:29;;;;;;;;;;;19.00;99.90;;;;;;5073797;28;19974;-79
2022/08/02 01:55:10;;;;;;;;;;;18.90;99.90;;;;;;5073792;28;20003;-79
2022/08/02 01:57:38;;;;;;;;;;;18.90;99.90;;;;;;5073704;28;19916;-81
2022/08/02 02:00:05;;;;;;;;;;;18.80;99.90;;;;;;5073750;28;19936;-80
2022/08/02 02:02:31;;;;;;;;;;;18.90;99.90;;;;;;5073668;28;19912;-79
2022/08/02 02:04:58;;;;;;;;;;;19.00;99.90;;;;;;5073614;28;19913;-81
2022/08/02 02:07:25;;;;;;;;;;;19.00;99.90;;;;;;5073626;28;19909;-79
2022/08/02 02:09:52;;;;;;;;;;;19.20;99.90;;;;;;5073449;28;19909;-83
2022/08/02 02:12:18;;;;;;;;;;;19.20;99.90;;;;;;5073570;28;19909;-80
2022/08/02 02:14:44;;;;;;;;;;;19.20;99.90;;;;;;5073570;28;19987;-83
2022/08/02 02:17:11;;;;;;;;;;;19.00;99.90;;;;;;5073681;28;19912;-82
2022/08/02 02:19:38;;;;;;;;;;;19.10;99.90;;;;;;5073567;28;19967;-83
2022/08/02 02:22:03;;;;;;;;;;;19.10;99.90;;;;;;5073540;28;19908;-78
2022/08/02 02:24:29;;;;;;;;;;;19.10;99.90;;;;;;5073420;28;20326;-80
2022/08/02 02:26:56;;;;;;;;;;;18.90;99.90;;;;;;5073647;28;19915;-82
2022/08/02 02:29:24;;;;;;;;;;;18.80;99.90;;;;;;5073792;28;19912;-77
2022/08/02 02:31:51;;;;;;;;;;;18.80;99.90;;;;;;5073460;28;19908;-78
2022/08/02 02:34:22;;;;;;;;;;;18.80;99.90;;;;;;5073417;28;19908;-82
2022/08/02 02:36:49;;;;;;;;;;;18.60;99.90;;;;;;5073411;28;19932;-79
2022/08/02 02:39:17;;;;;;;;;;;18.50;99.90;;;;;;5074150;28;20370;-80
2022/08/02 02:41:43;;;;;;;;;;;18.50;99.90;;;;;;5073273;28;19959;-78
2022/08/02 02:44:12;;;;;;;;;;;18.60;99.90;;;;;;5073002;28;19952;-79
2022/08/02 02:46:38;;;;;;;;;;;18.60;99.90;;;;;;5073257;28;19912;-81
2022/08/02 02:49:03;;;;;;;;;;;18.60;99.90;;;;;;5073141;28;20280;-82
2022/08/02 02:51:29;;;;;;;;;;;18.60;99.90;;;;;;5073187;28;19958;-79
2022/08/02 02:53:56;;;;;;;;;;;18.60;99.90;;;;;;5073231;28;19944;-80
2022/08/02 02:56:22;;;;;;;;;;;18.60;99.90;;;;;;5073316;28;19920;-81
2022/08/02 02:58:48;;;;;;;;;;;18.60;99.90;;;;;;5073144;28;19909;-79
2022/08/02 03:01:32;;;;;;;;;;;18.70;99.90;;;;;;5073515;28;20401;-81
2022/08/02 03:04:05;;;;;;;;;;;18.70;99.90;;;;;;5073165;28;19912;-81
2022/08/02 03:06:31;;;;;;;;;;;18.70;99.90;;;;;;5073023;28;19909;-84
2022/08/02 03:08:56;;;;;;;;;;;18.70;99.90;;;;;;5072973;28;19908;-78
2022/08/02 03:11:28;;;;;;;;;;;18.60;99.90;;;;;;5072966;28;19996;-82
2022/08/02 03:13:58;;;;;;;;;;;18.60;99.90;;;;;;5073161;28;19908;-79
2022/08/02 03:16:24;;;;;;;;;;;18.50;99.90;;;;;;5072942;28;19916;-82
2022/08/02 03:18:49;;;;;;;;;;;18.50;99.90;;;;;;5072983;28;19909;-81
2022/08/02 03:21:15;;;;;;;;;;;18.40;99.90;;;;;;5076571;28;19908;-79
2022/08/02 03:23:41;;;;;;;;;;;18.40;99.90;;;;;;5076720;28;19995;-83
2022/08/02 03:26:07;;;;;;;;;;;18.50;99.90;;;;;;5076524;28;19912;-82
2022/08/02 03:28:33;;;;;;;;;;;18.30;99.90;;;;;;5076439;28;19915;-80
2022/08/02 03:30:59;;;;;;;;;;;18.40;99.90;;;;;;5076504;28;19944;-80
2022/08/02 03:33:25;;;;;;;;;;;18.40;99.90;;;;;;5076330;28;20276;-80
2022/08/02 03:35:52;;;;;;;;;;;18.40;99.90;;;;;;5076339;28;19991;-79
2022/08/02 03:38:20;;;;;;;;;;;18.40;99.90;;;;;;5076796;28;19908;-81
2022/08/02 03:40:46;;;;;;;;;;;18.30;99.90;;;;;;5076344;28;19994;-84
2022/08/02 03:43:12;;;;;;;;;;;18.30;99.90;;;;;;5075905;28;19959;-78
2022/08/02 03:45:38;;;;;;;;;;;18.10;99.90;;;;;;5076101;28;20410;-83
2022/08/02 03:48:04;;;;;;;;;;;18.10;99.90;;;;;;5076031;28;19909;-83
2022/08/02 03:50:30;;;;;;;;;;;18.10;99.90;;;;;;5076020;28;19915;-82
2022/08/02 03:52:56;;;;;;;;;;;18.00;99.90;;;;;;5076048;28;20284;-82
2022/08/02 03:55:22;;;;;;;;;;;18.00;99.90;;;;;;5075967;28;19999;-78
2022/08/02 03:57:47;;;;;;;;;;;18.30;99.90;;;;;;5075943;28;20314;-82
2022/08/02 04:00:17;;;;;;;;;;;18.30;99.90;;;;;;5075910;28;20376;-79
2022/08/02 04:02:42;;;;;;;;;;;18.30;99.90;;;;;;5075853;28;19942;-77
2022/08/02 04:05:08;;;;;;;;;;;18.20;99.90;;;;;;5076230;28;20375;-82
2022/08/02 04:07:33;;;;;;;;;;;18.30;99.90;;;;;;5076097;28;19916;-79
2022/08/02 04:09:59;;;;;;;;;;;18.30;99.90;;;;;;5075606;28;20280;-82
2022/08/02 04:12:24;;;;;;;;;;;18.10;99.90;;;;;;5057663;28;19969;-81
2022/08/02 04:14:50;;;;;;;;;;;17.90;99.90;;;;;;5075702;28;19909;-79
2022/08/02 04:17:17;;;;;;;;;;;17.90;99.90;;;;;;5075558;28;19967;-82
2022/08/02 04:19:46;;;;;;;;;;;17.90;99.90;;;;;;5057512;28;19909;-78
2022/08/02 04:22:17;;;;;;;;;;;17.90;99.90;;;;;;5075444;28;19912;-83
2022/08/02 04:24:46;;;;;;;;;;;17.90;99.90;;;;;;5075395;28;20395;-79
2022/08/02 04:27:12;;;;;;;;;;;18.00;99.90;;;;;;5075327;28;20300;-83
2022/08/02 04:29:38;;;;;;;;;;;17.60;99.90;;;;;;5075332;28;19909;-84
2022/08/02 04:32:04;;;;;;;;;;;17.60;99.90;;;;;;5074542;28;19945;-82
2022/08/02 04:34:30;;;;;;;;;;;17.70;99.90;;;;;;5074710;28;20285;-83
2022/08/02 04:36:56;;;;;;;;;;;17.90;99.90;;;;;;5075189;28;19917;-79
2022/08/02 04:39:21;;;;;;;;;;;18.00;99.90;;;;;;5075621;28;20016;-80
2022/08/02 04:41:47;;;;;;;;;;;17.90;99.90;;;;;;5075506;28;20377;-80
2022/08/02 04:44:12;;;;;;;;;;;17.90;99.90;;;;;;5074675;28;19927;-82
2022/08/02 04:46:39;;;;;;;;;;;17.90;99.90;;;;;;5074933;28;19954;-80
2022/08/02 04:49:04;;;;;;;;;;;17.90;99.90;;;;;;5074854;28;19909;-77
2022/08/02 04:51:32;;;;;;;;;;;18.00;99.90;;;;;;5075159;28;19934;-80
2022/08/02 04:53:58;;;;;;;;;;;17.80;99.90;;;;;;5075203;28;20003;-79
2022/08/02 04:56:23;;;;;;;;;;;17.70;99.90;;;;;;5074912;28;20347;-81
2022/08/02 04:58:49;;;;;;;;;;;17.60;99.90;;;;;;5074688;28;19909;-80
2022/08/02 05:01:15;;;;;;;;;;;17.50;99.90;;;;;;5074669;28;19944;-82
2022/08/02 05:03:40;;;;;;;;;;;17.50;99.90;;;;;;5074777;28;20300;-76
2022/08/02 05:06:06;;;;;;;;;;;17.70;99.90;;;;;;5074574;28;19995;-81
2022/08/02 05:08:31;;;;;;;;;;;17.60;99.90;;;;;;5074690;28;19912;-80
2022/08/02 05:10:57;;;;;;;;;;;17.60;99.90;;;;;;5074559;28;20418;-79
2022/08/02 05:13:22;;;;;;;;;;;17.80;99.90;;;;;;5056220;28;19916;-80
2022/08/02 05:15:49;;;;;;;;;;;17.90;99.90;;;;;;5074392;28;20280;-79
2022/08/02 05:18:15;;;;;;;;;;;17.90;99.90;;;;;;5074439;28;19909;-83
2022/08/02 05:20:40;;;;;;;;;;;18.00;99.90;;;;;;5074291;28;19916;-81
2022/08/02 05:23:06;;;;;;;;;;;18.10;99.90;;;;;;5074253;28;19970;-80
2022/08/02 05:25:31;;;;;;;;;;;18.20;99.90;;;;;;5074283;28;20334;-80
2022/08/02 05:27:57;;;;;;;;;;;18.20;99.90;;;;;;5074168;28;19909;-81
2022/08/02 05:30:22;;;;;;;;;;;18.30;99.90;;;;;;5074132;28;19954;-83
2022/08/02 05:32:52;;;;;;;;;;;18.30;99.90;;;;;;5074223;28;19909;-80
2022/08/02 05:35:18;;;;;;;;;;;18.40;99.90;;;;;;5074017;28;19935;-79
2022/08/02 05:37:44;;;;;;;;;;;18.40;99.90;;;;;;5074327;28;19909;-82
2022/08/02 05:40:10;;;;;;;;;;;18.40;99.90;;;;;;5074042;28;20061;-79
2022/08/02 05:42:36;;;;;;;;;;;18.50;99.90;;;;;;5074509;28;20311;-79
2022/08/02 05:45:02;;;;;;;;;;;18.40;99.90;;;;;;5073390;28;20435;-80
2022/08/02 05:47:27;;;;;;;;;;;18.50;99.90;;;;;;5073770;28;19908;-80
2022/08/02 05:49:53;;;;;;;;;;;18.50;99.90;;;;;;5073843;28;20387;-79
2022/08/02 05:52:19;;;;;;;;;;;18.50;99.90;;;;;;5055817;28;19908;-78
2022/08/02 05:55:14;;;;;;;;;;;18.60;99.90;;;;;;5073829;28;20017;-80
2022/08/02 05:57:48;;;;;;;;;;;18.60;99.90;;;;;;5060239;28;20369;-80
2022/08/02 06:00:15;;;;;;;;;;;18.70;99.90;;;;;;5073925;28;19916;-82
2022/08/02 06:02:49;;;;;;;;;;;18.90;99.90;;;;;;5073775;28;19909;-81
2022/08/02 06:05:17;;;;;;;;;;;19.00;99.90;;;;;;5073749;28;20291;-81
2022/08/02 06:07:44;;;;;;;;;;;18.90;99.90;;;;;;5073613;28;19915;-81
2022/08/02 06:10:12;;;;;;;;;;;18.90;99.90;;;;;;5073807;28;19936;-79
2022/08/02 06:12:53;;;;;;;;;;;19.10;99.90;;;;;;5056462;28;19916;-83
2022/08/02 06:15:19;;;;;;;;;;;19.10;99.90;;;;;;5073619;28;19908;-83
2022/08/02 06:17:46;;;;;;;;;;;19.20;99.90;;;;;;5073506;28;19909;-82
2022/08/02 06:20:12;;;;;;;;;;;19.20;99.90;;;;;;5073483;28;20007;-80
2022/08/02 06:22:42;;;;;;;;;;;19.30;99.90;;;;;;5073684;28;19915;-82
2022/08/02 06:25:08;;;;;;;;;;;19.50;99.90;;;;;;5073491;28;20377;-79
2022/08/02 06:27:34;;;;;;;;;;;19.50;99.90;;;;;;5073517;28;19909;-80
2022/08/02 06:30:00;;;;;;;;;;;19.60;99.90;;;;;;5073427;28;19908;-83
2022/08/02 06:32:26;;;;;;;;;;;19.70;99.90;;;;;;5073376;28;19915;-81
2022/08/02 06:34:51;;;;;;;;;;;19.80;99.90;;;;;;5073411;28;19912;-81
2022/08/02 06:37:17;;;;;;;;;;;19.80;99.90;;;;;;5073349;28;20280;-82
2022/08/02 06:39:45;;;;;;;;;;;20.00;99.90;;;;;;5055412;28;19909;-82
2022/08/02 06:42:11;;;;;;;;;;;19.90;99.90;;;;;;5073789;28;19951;-79
2022/08/02 06:44:37;;;;;;;;;;;20.00;99.90;;;;;;5072825;28;19920;-80
2022/08/02 06:47:03;;;;;;;;;;;20.00;99.90;;;;;;5073298;28;20253;-82
2022/08/02 06:49:29;;;;;;;;;;;20.30;99.90;;;;;;5073168;28;19931;-83
2022/08/02 06:51:54;;;;;;;;;;;20.40;99.90;;;;;;5073256;28;19908;-83
2022/08/02 06:54:20;;;;;;;;;;;20.20;99.90;;;;;;5073996;28;20406;-79
2022/08/02 06:56:46;;;;;;;;;;;20.40;99.90;;;;;;5077042;28;19908;-80
2022/08/02 06:59:12;;;;;;;;;;;20.60;99.90;;;;;;5076995;28;20288;-81
2022/08/02 07:01:37;;;;;;;;;;;20.60;99.90;;;;;;5077007;28;19915;-83
2022/08/02 07:04:03;;;;;;;;;;;20.70;99.90;;;;;;5076808;28;20341;-81
2022/08/02 07:06:29;;;;;;;;;;;20.50;99.90;;;;;;5076702;28;19992;-83
2022/08/02 07:08:55;;;;;;;;;;;20.50;99.90;;;;;;5076651;28;19916;-81
2022/08/02 07:11:21;;;;;;;;;;;20.50;99.90;;;;;;5077311;28;19950;-79
2022/08/02 07:13:46;;;;;;;;;;;20.70;99.90;;;;;;5076689;28;19936;-84
2022/08/02 07:16:12;;;;;;;;;;;;;;;;;;5077236;28;19919;-83
2022/08/02 07:18:38;;;;;;;;;;;22.10;99.90;;;;;;5076661;28;19939;-83
2022/08/02 07:21:04;;;;;;;;;;;24.50;99.90;;;;;;5076826;28;19912;-83
2022/08/02 07:23:31;;;;;;;;;;;26.20;99.90;;;;;;5058552;28;19912;-82
2022/08/02 07:25:56;;;;;;;;;;;27.20;98.10;;;;;;5076451;28;19912;-81
2022/08/02 07:28:22;;;;;;;;;;;28.20;94.60;;;;;;5076921;28;19913;-83
2022/08/02 07:30:48;;;;;;;;;;;28.40;90.40;;;;;;5076540;28;19915;-80
2022/08/02 07:33:13;;;;;;;;;;;29.00;91.40;;;;;;5076379;28;20270;-80
2022/08/02 07:35:39;;;;;;;;;;;28.70;88.30;;;;;;5076334;28;19908;-81
2022/08/02 07:38:05;;;;;;;;;;;28.40;87.40;;;;;;5076482;28;19931;-79
2022/08/02 07:40:31;;;;;;;;;;;28.50;91.00;;;;;;5076267;28;20372;-82
2022/08/02 07:42:56;;;;;;;;;;;28.30;90.10;;;;;;5076012;28;19909;-82
2022/08/02 07:45:22;;;;;;;;;;;28.30;88.60;;;;;;5076274;28;19920;-82
2022/08/02 07:47:48;;;;;;;;;;;27.20;90.60;;;;;;5076078;28;19916;-80
2022/08/02 07:50:15;;;;;;;;;;;26.90;92.70;;;;;;5076476;28;19908;-78
2022/08/02 07:52:41;;;;;;;;;;;26.90;93.50;;;;;;5076116;28;19908;-80
2022/08/02 07:55:07;;;;;;;;;;;27.10;93.60;;;;;;5076097;28;19915;-80
2022/08/02 07:57:33;;;;;;;;;;;26.70;92.90;;;;;;5075975;28;19999;-80
2022/08/02 07:59:59;;;;;;;;;;;27.10;92.50;;;;;;5058014;28;19932;-82
2022/08/02 08:02:24;;;;;;;;;;;27.10;92.70;;;;;;5075987;28;19915;-82
2022/08/02 08:04:50;;;;;;;;;;;27.00;93.50;;;;;;5075820;28;20361;-80
2022/08/02 08:07:16;;;;;;;;;;;27.20;91.50;;;;;;5074591;28;20372;-81
2022/08/02 08:09:42;;;;;;;;;;;27.30;91.40;;;;;;5075721;28;19940;-83
2022/08/02 08:12:08;;;;;;;;;;;27.20;91.20;;;;;;5076187;28;20442;-80
2022/08/02 08:14:35;;;;;;;;;;;27.00;91.20;;;;;;5075652;28;19916;-85
2022/08/02 08:17:00;;;;;;;;;;;26.90;91.50;;;;;;5075557;28;19934;-83
2022/08/02 08:19:26;;;;;;;;;;;27.60;91.30;;;;;;5075590;28;19999;-80
2022/08/02 08:21:52;;;;;;;;;;;27.80;90.40;;;;;;5075529;28;19962;-80
2022/08/02 08:24:19;;;;;;;;;;;27.80;90.00;;;;;;5075552;28;19919;-82
2022/08/02 08:26:44;;;;;;;;;;;27.90;90.00;;;;;;5057224;28;20027;-83
2022/08/02 08:29:10;;;;;;;;;;;28.20;90.00;;;;;;5075891;28;19944;-82
2022/08/02 08:31:36;;;;;;;;;;;28.50;87.50;;;;;;5075360;28;19908;-82
2022/08/02 08:34:02;;;;;;;;;;;27.70;88.80;;;;;;5075811;28;19912;-79
2022/08/02 08:36:28;;;;;;;;;;;27.90;90.20;;;;;;5075296;28;20365;-82
2022/08/02 08:38:53;;;;;;;;;;;28.20;88.60;;;;;;5075187;28;20003;-82
2022/08/02 08:41:19;;;;;;;;;;;29.00;86.40;;;;;;5075097;28;19908;-83
2022/08/02 08:43:45;;;;;;;;;;;29.40;83.30;;;;;;5074852;28;19921;-78
2022/08/02 08:46:17;;;;;;;;;;;29.50;81.50;;;;;;5074973;28;19999;-81
2022/08/02 08:48:45;;;;;;;;;;;29.50;81.60;;;;;;5075232;28;19913;-79
2022/08/02 08:51:14;;;;;;;;;;;29.40;81.20;;;;;;5057061;28;19958;-81
2022/08/02 08:53:42;;;;;;;;;;;29.50;80.80;;;;;;5074839;28;19923;-84
2022/08/02 08:56:07;;;;;;;;;;;30.10;79.20;;;;;;5075381;28;19927;-80
2022/08/02 08:58:33;;;;;;;;;;;31.00;78.40;;;;;;5075195;28;20277;-84
2022/08/02 09:00:59;;;;;;;;;;;31.30;75.50;;;;;;5074701;28;19915;-83
2022/08/02 09:03:24;;;;;;;;;;;32.10;74.00;;;;;;5074682;28;19909;-82
2022/08/02 09:05:50;;;;;;;;;;;31.80;73.70;;;;;;5074543;28;19913;-80
2022/08/02 09:08:17;;;;;;;;;;;32.00;73.00;;;;;;5056589;28;20284;-79
2022/08/02 09:10:44;;;;;;;;;;;31.30;73.10;;;;;;5074519;28;19909;-82
2022/08/02 09:13:10;;;;;;;;;;;32.10;72.10;;;;;;5074980;28;20269;-83
2022/08/02 09:15:39;;;;;;;;;;;32.80;71.10;;;;;;5074453;28;19915;-83
2022/08/02 09:18:05;;;;;;;;;;;32.70;69.50;;;;;;5074103;28;19931;-80
2022/08/02 09:20:35;;;;;;;;;;;32.60;69.00;;;;;;5074328;28;19954;-78
2022/08/02 09:23:08;;;;;;;;;;;33.50;68.10;;;;;;5056786;28;20405;-84
2022/08/02 09:25:34;;;;;;;;;;;33.80;66.90;;;;;;5074480;28;19918;-78
2022/08/02 09:27:59;;;;;;;;;;;33.20;66.30;;;;;;5074205;28;19909;-84
2022/08/02 09:30:25;;;;;;;;;;;32.90;67.00;;;;;;5074096;28;19909;-79
2022/08/02 09:32:51;;;;;;;;;;;33.60;66.50;;;;;;5074160;28;20295;-80
2022/08/02 09:35:33;;;;;;;;;;;34.10;64.50;;;;;;5074370;28;19957;-86
2022/08/02 09:38:11;;;;;;;;;;;34.40;63.90;;;;;;5074067;28;19908;-83
2022/08/02 09:40:38;;;;;;;;;;;34.20;63.90;;;;;;5074006;28;19958;-82
2022/08/02 09:43:04;;;;;;;;;;;35.80;63.10;;;;;;5073922;28;20708;-78
2022/08/02 09:45:31;;;;;;;;;;;36.50;59.70;;;;;;5074083;28;19909;-79
2022/08/02 09:47:57;;;;;;;;;;;37.20;59.70;;;;;;5073835;28;20300;-77
2022/08/02 09:50:22;;;;;;;;;;;38.10;57.90;;;;;;5073833;28;19913;-80
2022/08/02 09:52:48;;;;;;;;;;;38.10;57.40;;;;;;5073816;28;20257;-82
2022/08/02 09:55:14;;;;;;;;;;;38.90;56.30;;;;;;5074026;28;19912;-79
2022/08/02 09:57:41;;;;;;;;;;;39.10;54.60;;;;;;5073744;28;19908;-80
2022/08/02 10:00:09;;;;;;;;;;;38.70;54.90;;;;;;5073995;28;19943;-82
2022/08/02 10:02:35;;;;;;;;;;;37.80;55.40;;;;;;5074115;28;19954;-82
2022/08/02 10:05:00;;;;;;;;;;;38.40;54.50;;;;;;5073865;28;19912;-83
2022/08/02 10:07:26;;;;;;;;;;;39.00;54.10;;;;;;5073976;28;19908;-80
2022/08/02 10:09:51;;;;;;;;;;;40.50;51.90;;;;;;5073931;28;19955;-80
2022/08/02 10:12:18;;;;;;;;;;;42.30;51.10;;;;;;5074096;28;19912;-83
2022/08/02 10:14:44;;;;;;;;;;;43.90;48.00;;;;;;5073598;28;19909;-83
2022/08/02 10:17:10;;;;;;;;;;;44.10;47.10;;;;;;5074093;28;19912;-81
2022/08/02 10:19:35;;;;;;;;;;;43.30;47.30;;;;;;5073575;28;20376;-79
2022/08/02 10:22:04;;;;;;;;;;;44.20;46.70;;;;;;5073768;28;20257;-80
2022/08/02 10:24:30;;;;;;;;;;;44.40;46.00;;;;;;5073409;28;19912;-79
2022/08/02 10:26:58;;;;;;;;;;;46.40;45.90;;;;;;5073484;28;19915;-83
2022/08/02 10:29:29;;;;;;;;;;;47.70;43.50;;;;;;5074513;28;20288;-81
2022/08/02 10:31:57;;;;;;;;;;;47.60;42.90;;;;;;5077579;28;20391;-81
2022/08/02 10:34:26;;;;;;;;;;;46.80;42.30;;;;;;5077824;28;20254;-80
2022/08/02 10:36:52;;;;;;;;;;;46.30;43.80;;;;;;5078638;28;20005;-82
2022/08/02 10:39:17;;;;;;;;;;;47.10;43.10;;;;;;5077394;28;19916;-82
2022/08/02 10:41:48;;;;;;;;;;;47.70;41.60;;;;;;5079229;28;20070;-78
2022/08/02 10:44:21;;;;;;;;;;;47.50;41.80;;;;;;5078812;28;20002;-81
2022/08/02 10:46:47;;;;;;;;;;;47.00;41.90;;;;;;5086574;28;19909;-78
2022/08/02 10:49:19;;;;;;;;;;;47.70;41.30;;;;;;5088524;28;19935;-80
2022/08/02 10:51:51;;;;;;;;;;;49.80;40.80;;;;;;5086311;28;19909;-81
2022/08/02 10:54:19;;;;;;;;;;;49.80;39.40;;;;;;5085584;28;19919;-79
2022/08/02 10:56:46;;;;;;;;;;;48.80;39.90;;;;;;5086274;28;19908;-81
2022/08/02 10:59:25;;;;;;;;;;;48.40;40.40;;;;;;5086300;28;19908;-80
2022/08/02 11:01:51;;;;;;;;;;;48.20;40.10;;;;;;5086993;28;19910;-79
2022/08/02 11:04:16;;;;;;;;;;;48.00;40.60;;;;;;5085317;28;20012;-80
2022/08/02 11:07:00;;;;;;;;;;;48.30;39.80;;;;;;5087505;28;19919;-79
2022/08/02 11:09:26;;;;;;;;;;;48.70;39.90;;;;;;5086073;28;19909;-81
2022/08/02 11:12:00;;;;;;;;;;;49.10;39.60;;;;;;5088720;28;20388;-82
2022/08/02 11:14:26;;;;;;;;;;;48.30;39.80;;;;;;5085814;28;20409;-84
2022/08/02 11:16:54;;;;;;;;;;;47.80;41.20;;;;;;5086021;28;19912;-81
2022/08/02 11:19:21;;;;;;;;;;;48.70;39.50;;;;;;5087250;28;19999;-80
2022/08/02 11:22:06;;;;;;;;;;;46.60;40.40;;;;;;5087028;28;20349;-83
2022/08/02 11:24:35;;;;;;;;;;;46.40;41.20;;;;;;5086709;28;19943;-82
2022/08/02 11:27:03;;;;;;;;;;;46.80;40.60;;;;;;5061214;28;19974;-82
2022/08/02 11:29:32;;;;;;;;;;;47.00;40.70;;;;;;5076617;28;19916;-81
2022/08/02 11:31:58;;;;;;;;;;;46.60;40.70;;;;;;5076834;28;19912;-80
2022/08/02 11:34:24;;;;;;;;;;;46.70;40.80;;;;;;5076612;28;19959;-84
2022/08/02 11:36:50;;;;;;;;;;;47.90;40.30;;;;;;5076769;28;19913;-81
2022/08/02 11:39:18;;;;;;;;;;;47.80;40.70;;;;;;5076757;28;19935;-81
2022/08/02 11:41:47;;;;;;;;;;;48.60;39.60;;;;;;5076514;28;19916;-80
2022/08/02 11:44:13;;;;;;;;;;;48.40;39.40;;;;;;5076363;28;20373;-81
2022/08/02 11:46:39;;;;;;;;;;;49.10;39.30;;;;;;5076407;28;19908;-81
2022/08/02 11:49:12;;;;;;;;;;;48.00;39.40;;;;;;5076192;28;19908;-82
2022/08/02 11:51:38;;;;;;;;;;;46.80;39.90;;;;;;5076607;28;19909;-82
2022/08/02 11:54:03;;;;;;;;;;;45.70;40.30;;;;;;5076283;28;19996;-79
2022/08/02 11:56:31;;;;;;;;;;;45.30;41.10;;;;;;5076084;28;20369;-83
2022/08/02 11:59:01;;;;;;;;;;;46.50;40.40;;;;;;5076123;28;20319;-80
2022/08/02 12:01:26;;;;;;;;;;;47.50;39.10;;;;;;5058510;28;20331;-81
2022/08/02 12:03:57;;;;;;;;;;;47.60;39.60;;;;;;5076226;28;19912;-82
2022/08/02 12:06:24;;;;;;;;;;;49.70;39.10;;;;;;5076401;28;19916;-81
2022/08/02 12:08:49;;;;;;;;;;;49.80;38.30;;;;;;5076482;28;19967;-79
2022/08/02 12:11:17;;;;;;;;;;;48.30;38.80;;;;;;5076480;28;19917;-81
2022/08/02 12:13:44;;;;;;;;;;;47.90;38.80;;;;;;5077300;28;19909;-80
2022/08/02 12:21:38;;;;;;;;;;;51.80;37.20;;;;;;5075796;28;19987;-80
2022/08/02 12:24:04;;;;;;;;;;;52.90;36.60;;;;;;5075878;28;19916;-80
2022/08/02 12:26:30;;;;;;;;;;;51.80;36.60;;;;;;5075216;28;20003;-81
2022/08/02 12:28:57;;;;;;;;;;;50.90;36.90;;;;;;5075313;28;20365;-82
2022/08/02 12:31:37;;;;;;;;;;;48.90;37.60;;;;;;5075621;28;19912;-79
2022/08/02 12:34:10;;;;;;;;;;;48.50;37.80;;;;;;5075275;28;20292;-82
2022/08/02 12:36:35;;;;;;;;;;;47.60;37.90;;;;;;5075301;28;19915;-80
2022/08/02 12:39:01;;;;;;;;;;;46.80;38.40;;;;;;5075097;28;19995;-81
2022/08/02 12:41:27;;;;;;;;;;;47.00;38.50;;;;;;5075045;28;19923;-81
2022/08/02 12:43:53;;;;;;;;;;;47.80;38.50;;;;;;5074810;28;19920;-80
2022/08/02 12:46:20;;;;;;;;;;;48.60;37.40;;;;;;5074964;28;19909;-83
2022/08/02 12:48:46;;;;;;;;;;;47.60;38.20;;;;;;5074793;28;20432;-82
2022/08/02 12:51:23;;;;;;;;;;;47.20;38.40;;;;;;5075024;28;19954;-82
2022/08/02 12:53:49;;;;;;;;;;;47.10;38.10;;;;;;5074394;28;19923;-84
2022/08/02 12:56:27;;;;;;;;;;;48.50;38.70;;;;;;5074811;28;19962;-82
2022/08/02 12:58:53;;;;;;;;;;;49.20;37.00;;;;;;5074740;28;19948;-81
2022/08/02 13:01:19;;;;;;;;;;;50.30;37.30;;;;;;5074652;28;19916;-82
2022/08/02 13:03:44;;;;;;;;;;;50.90;36.00;;;;;;5074664;28;20283;-82
2022/08/02 13:06:10;;;;;;;;;;;50.00;36.40;;;;;;5074608;28;20003;-83
2022/08/02 13:08:37;;;;;;;;;;;50.40;36.40;;;;;;5074497;28;19908;-80
2022/08/02 13:11:02;;;;;;;;;;;49.10;36.60;;;;;;5074448;28;20339;-82
2022/08/02 13:13:28;;;;;;;;;;;47.90;37.20;;;;;;5074957;28;19957;-83
2022/08/02 13:15:53;;;;;;;;;;;48.10;37.80;;;;;;5074355;28;19935;-83
2022/08/02 13:18:19;;;;;;;;;;;47.30;37.50;;;;;;5074332;28;19913;-82
2022/08/02 13:20:44;;;;;;;;;;;47.10;37.60;;;;;;5074455;28;20042;-81
2022/08/02 13:23:10;;;;;;;;;;;46.40;37.80;;;;;;5074403;28;19924;-83
2022/08/02 13:25:35;;;;;;;;;;;46.60;38.70;;;;;;5074572;28;20010;-83
2022/08/02 13:28:01;;;;;;;;;;;48.50;37.70;;;;;;5074452;28;19916;-80
2022/08/02 13:30:27;;;;;;;;;;;50.10;36.80;;;;;;5074367;28;20261;-80
2022/08/02 13:32:52;;;;;;;;;;;50.80;36.20;;;;;;5074007;28;19919;-80
2022/08/02 13:35:18;;;;;;;;;;;50.90;36.40;;;;;;5074234;28;19970;-82
2022/08/02 13:37:44;;;;;;;;;;;50.20;36.30;;;;;;5074066;28;20262;-81
2022/08/02 13:40:10;;;;;;;;;;;49.30;36.20;;;;;;5055914;28;19912;-82
2022/08/02 13:42:36;;;;;;;;;;;47.30;37.00;;;;;;5074346;28;20280;-84
2022/08/02 13:45:01;;;;;;;;;;;45.70;38.50;;;;;;5073480;28;19921;-81
2022/08/02 13:47:27;;;;;;;;;;;45.00;39.40;;;;;;5073936;28;19908;-81
2022/08/02 13:49:52;;;;;;;;;;;45.60;38.90;;;;;;5074375;28;19930;-82
2022/08/02 13:52:18;;;;;;;;;;;45.90;38.60;;;;;;5073828;28;19934;-83
2022/08/02 13:54:44;;;;;;;;;;;46.20;38.80;;;;;;5073693;28;19919;-82
2022/08/02 13:57:09;;;;;;;;;;;47.00;38.40;;;;;;5073870;28;19912;-82
2022/08/02 13:59:35;;;;;;;;;;;47.00;38.40;;;;;;5055439;28;20054;-83
2022/08/02 14:02:00;;;;;;;;;;;47.50;38.10;;;;;;5073852;28;19909;-82
2022/08/02 14:04:26;;;;;;;;;;;45.90;38.50;;;;;;5073310;28;19931;-81
2022/08/02 14:06:52;;;;;;;;;;;44.90;39.30;;;;;;5055593;28;19919;-80
2022/08/02 14:09:17;;;;;;;;;;;43.90;40.30;;;;;;5073495;28;19999;-79
2022/08/02 14:11:46;;;;;;;;;;;42.60;40.60;;;;;;5073872;28;20034;-80
2022/08/02 14:14:12;;;;;;;;;;;42.00;41.50;;;;;;5073690;28;19916;-82
2022/08/02 14:16:38;;;;;;;;;;;42.30;41.40;;;;;;5073410;28;19909;-80
2022/08/02 14:19:04;;;;;;;;;;;43.40;40.50;;;;;;5073431;28;19912;-80
2022/08/02 14:21:30;;;;;;;;;;;43.90;40.40;;;;;;5073866;28;19958;-83
2022/08/02 14:23:56;;;;;;;;;;;43.60;40.70;;;;;;5073487;28;19909;-81